sensor_id;sensor_type;location;lat;lon;timestamp;pressure;altitude;pressure_sealevel;temperature;humidity
64115;BME280;62188;35.640;139.748;2024-02-15T00:01:35;101875.47;;;15.29;33.12
64115;BME280;62188;35.640;139.748;2024-02-15T00:04:01;101870.27;;;14.73;33.44
64115;BME280;62188;35.640;139.748;2024-02-15T00:06:27;101870.86;;;15.56;32.88
64115;BME280;62188;35.640;139.748;2024-02-15T00:08:52;101875.19;;;15.23;32.76
64115;BME280;62188;35.640;139.748;2024-02-15T00:11:18;101869.98;;;16.21;32.24
64115;BME280;62188;35.640;139.748;2024-02-15T00:13:45;101865.32;;;16.48;31.63
64115;BME280;62188;35.640;139.748;2024-02-15T00:16:09;101861.19;;;15.82;31.77
64115;BME280;62188;35.640;139.748;2024-02-15T00:18:34;101852.28;;;16.66;30.91
64115;BME280;62188;35.640;139.748;2024-02-15T00:20:59;101845.43;;;16.66;30.50
64115;BME280;62188;35.640;139.748;2024-02-15T00:23:25;101841.44;;;16.72;30.35
64115;BME280;62188;35.640;139.748;2024-02-15T00:25:53;101834.90;;;16.76;30.59
64115;BME280;62188;35.640;139.748;2024-02-15T00:28:16;101832.56;;;16.96;30.56
64115;BME280;62188;35.640;139.748;2024-02-15T00:30:42;101829.42;;;17.08;29.84
64115;BME280;62188;35.640;139.748;2024-02-15T00:33:07;101827.71;;;16.93;29.82
64115;BME280;62188;35.640;139.748;2024-02-15T00:35:34;101825.00;;;17.53;29.75
64115;BME280;62188;35.640;139.748;2024-02-15T00:38:00;101818.23;;;17.21;29.69
64115;BME280;62188;35.640;139.748;2024-02-15T00:40:24;101813.26;;;17.44;29.62
64115;BME280;62188;35.640;139.748;2024-02-15T00:42:50;101804.71;;;17.68;29.48
64115;BME280;62188;35.640;139.748;2024-02-15T00:45:16;101802.41;;;18.33;29.32
64115;BME280;62188;35.640;139.748;2024-02-15T00:47:40;101802.16;;;17.39;29.43
64115;BME280;62188;35.640;139.748;2024-02-15T00:50:08;101798.14;;;17.82;29.12
64115;BME280;62188;35.640;139.748;2024-02-15T00:52:31;101797.37;;;17.98;28.77
64115;BME280;62188;35.640;139.748;2024-02-15T00:54:57;101788.53;;;18.30;28.72
64115;BME280;62188;35.640;139.748;2024-02-15T00:57:23;101779.72;;;18.61;28.31
64115;BME280;62188;35.640;139.748;2024-02-15T00:59:47;101774.41;;;18.85;28.12
64115;BME280;62188;35.640;139.748;2024-02-15T01:02:12;101780.93;;;18.61;28.07
64115;BME280;62188;35.640;139.748;2024-02-15T01:04:38;101774.68;;;18.32;29.36
64115;BME280;62188;35.640;139.748;2024-02-15T01:07:04;101769.39;;;18.21;29.22
64115;BME280;62188;35.640;139.748;2024-02-15T01:09:30;101772.35;;;18.21;29.54
64115;BME280;62188;35.640;139.748;2024-02-15T01:11:55;101756.23;;;18.84;29.05
64115;BME280;62188;35.640;139.748;2024-02-15T01:14:22;101750.24;;;18.59;29.63
64115;BME280;62188;35.640;139.748;2024-02-15T01:16:47;101743.00;;;19.12;29.29
64115;BME280;62188;35.640;139.748;2024-02-15T01:19:12;101736.92;;;19.46;29.38
64115;BME280;62188;35.640;139.748;2024-02-15T01:21:37;101735.09;;;19.45;29.43
64115;BME280;62188;35.640;139.748;2024-02-15T01:24:02;101724.74;;;19.40;30.05
64115;BME280;62188;35.640;139.748;2024-02-15T01:26:29;101713.96;;;19.64;30.31
64115;BME280;62188;35.640;139.748;2024-02-15T01:28:54;101710.09;;;19.29;31.30
64115;BME280;62188;35.640;139.748;2024-02-15T01:31:18;101705.51;;;19.92;30.83
64115;BME280;62188;35.640;139.748;2024-02-15T01:33:44;101697.37;;;19.96;31.18
64115;BME280;62188;35.640;139.748;2024-02-15T01:36:13;101695.49;;;19.06;32.70
64115;BME280;62188;35.640;139.748;2024-02-15T01:38:36;101681.84;;;19.03;33.09
64115;BME280;62188;35.640;139.748;2024-02-15T01:41:02;101674.67;;;19.07;33.29
64115;BME280;62188;35.640;139.748;2024-02-15T01:43:26;101666.95;;;19.14;33.37
64115;BME280;62188;35.640;139.748;2024-02-15T01:45:52;101659.83;;;19.91;32.85
64115;BME280;62188;35.640;139.748;2024-02-15T01:48:17;101660.74;;;20.14;32.43
64115;BME280;62188;35.640;139.748;2024-02-15T01:50:44;101657.83;;;20.79;32.13
64115;BME280;62188;35.640;139.748;2024-02-15T01:53:08;101650.84;;;20.28;32.31
64115;BME280;62188;35.640;139.748;2024-02-15T01:55:34;101644.68;;;20.67;32.53
64115;BME280;62188;35.640;139.748;2024-02-15T01:58:02;101635.85;;;19.90;33.17
64115;BME280;62188;35.640;139.748;2024-02-15T02:00:25;101629.10;;;20.22;33.20
64115;BME280;62188;35.640;139.748;2024-02-15T02:02:50;101620.73;;;20.41;32.65
64115;BME280;62188;35.640;139.748;2024-02-15T02:05:17;101607.35;;;20.30;32.56
64115;BME280;62188;35.640;139.748;2024-02-15T02:07:41;101614.04;;;21.02;32.12
64115;BME280;62188;35.640;139.748;2024-02-15T02:10:09;101605.18;;;21.61;31.62
64115;BME280;62188;35.640;139.748;2024-02-15T02:12:32;101588.79;;;21.96;30.99
64115;BME280;62188;35.640;139.748;2024-02-15T02:14:59;101586.65;;;21.23;31.52
64115;BME280;62188;35.640;139.748;2024-02-15T02:17:24;101582.03;;;20.58;32.01
64115;BME280;62188;35.640;139.748;2024-02-15T02:19:50;101583.01;;;20.54;32.38
64115;BME280;62188;35.640;139.748;2024-02-15T02:22:14;101571.78;;;18.34;34.73
64115;BME280;62188;35.640;139.748;2024-02-15T02:27:06;101545.41;;;20.66;32.82
64115;BME280;62188;35.640;139.748;2024-02-15T02:29:30;101545.02;;;20.60;32.63
64115;BME280;62188;35.640;139.748;2024-02-15T02:31:57;101538.46;;;20.96;32.25
64115;BME280;62188;35.640;139.748;2024-02-15T02:34:21;101539.37;;;19.91;32.73
64115;BME280;62188;35.640;139.748;2024-02-15T02:36:47;101523.96;;;19.28;32.87
64115;BME280;62188;35.640;139.748;2024-02-15T02:39:12;101513.25;;;20.32;32.52
64115;BME280;62188;35.640;139.748;2024-02-15T02:41:37;101513.75;;;19.91;32.93
64115;BME280;62188;35.640;139.748;2024-02-15T02:44:03;101505.91;;;19.59;33.40
64115;BME280;62188;35.640;139.748;2024-02-15T02:46:30;101512.63;;;20.25;32.80
64115;BME280;62188;35.640;139.748;2024-02-15T02:48:53;101489.76;;;20.89;32.45
64115;BME280;62188;35.640;139.748;2024-02-15T02:51:19;101484.68;;;20.53;32.32
64115;BME280;62188;35.640;139.748;2024-02-15T02:53:46;101481.10;;;21.06;31.94
64115;BME280;62188;35.640;139.748;2024-02-15T02:56:10;101481.97;;;19.56;33.66
64115;BME280;62188;35.640;139.748;2024-02-15T02:58:35;101470.91;;;20.05;33.31
64115;BME280;62188;35.640;139.748;2024-02-15T03:01:00;101472.28;;;19.52;33.84
64115;BME280;62188;35.640;139.748;2024-02-15T03:03:27;101481.00;;;19.60;33.49
64115;BME280;62188;35.640;139.748;2024-02-15T03:05:51;101453.82;;;20.30;33.60
64115;BME280;62188;35.640;139.748;2024-02-15T03:08:16;101448.31;;;20.70;33.15
64115;BME280;62188;35.640;139.748;2024-02-15T03:10:42;101440.96;;;21.22;32.42
64115;BME280;62188;35.640;139.748;2024-02-15T03:13:07;101437.12;;;21.51;31.95
64115;BME280;62188;35.640;139.748;2024-02-15T03:15:32;101429.27;;;22.35;31.39
64115;BME280;62188;35.640;139.748;2024-02-15T03:17:58;101417.91;;;22.58;30.61
64115;BME280;62188;35.640;139.748;2024-02-15T03:20:23;101409.90;;;23.01;30.24
64115;BME280;62188;35.640;139.748;2024-02-15T03:22:53;101392.96;;;21.51;31.43
64115;BME280;62188;35.640;139.748;2024-02-15T03:25:14;101412.38;;;21.70;31.76
64115;BME280;62188;35.640;139.748;2024-02-15T03:27:39;101416.22;;;21.54;32.08
64115;BME280;62188;35.640;139.748;2024-02-15T03:30:05;101396.47;;;20.76;32.90
64115;BME280;62188;35.640;139.748;2024-02-15T03:32:30;101390.34;;;21.04;32.95
64115;BME280;62188;35.640;139.748;2024-02-15T03:34:58;101380.71;;;21.59;32.62
64115;BME280;62188;35.640;139.748;2024-02-15T03:37:21;101376.75;;;21.01;32.92
64115;BME280;62188;35.640;139.748;2024-02-15T03:39:48;101378.52;;;21.22;32.85
64115;BME280;62188;35.640;139.748;2024-02-15T03:42:14;101374.61;;;20.82;33.11
64115;BME280;62188;35.640;139.748;2024-02-15T03:44:37;101366.87;;;21.48;32.70
64115;BME280;62188;35.640;139.748;2024-02-15T03:47:03;101367.32;;;20.72;33.39
64115;BME280;62188;35.640;139.748;2024-02-15T03:49:30;101364.94;;;20.07;34.34
64115;BME280;62188;35.640;139.748;2024-02-15T03:51:55;101368.90;;;20.73;33.51
64115;BME280;62188;35.640;139.748;2024-02-15T03:54:21;101347.92;;;21.31;33.35
64115;BME280;62188;35.640;139.748;2024-02-15T03:56:50;101362.67;;;20.32;34.39
64115;BME280;62188;35.640;139.748;2024-02-15T03:59:11;101344.40;;;20.69;34.33
64115;BME280;62188;35.640;139.748;2024-02-15T04:01:36;101336.38;;;19.37;35.98
64115;BME280;62188;35.640;139.748;2024-02-15T04:04:04;101323.83;;;19.77;36.42
64115;BME280;62188;35.640;139.748;2024-02-15T04:06:28;101320.24;;;20.26;36.02
64115;BME280;62188;35.640;139.748;2024-02-15T04:08:52;101307.56;;;20.33;34.95
64115;BME280;62188;35.640;139.748;2024-02-15T04:11:18;101308.14;;;20.58;35.55
64115;BME280;62188;35.640;139.748;2024-02-15T04:13:43;101309.34;;;20.25;35.59
64115;BME280;62188;35.640;139.748;2024-02-15T04:16:09;101311.28;;;19.83;36.38
64115;BME280;62188;35.640;139.748;2024-02-15T04:18:34;101298.34;;;19.93;36.13
64115;BME280;62188;35.640;139.748;2024-02-15T04:20:58;101299.84;;;19.46;36.93
64115;BME280;62188;35.640;139.748;2024-02-15T04:23:24;101293.51;;;19.40;37.30
64115;BME280;62188;35.640;139.748;2024-02-15T04:25:50;101306.57;;;19.68;37.23
64115;BME280;62188;35.640;139.748;2024-02-15T04:28:16;101294.92;;;19.31;38.06
64115;BME280;62188;35.640;139.748;2024-02-15T04:30:41;101298.38;;;18.08;39.34
64115;BME280;62188;35.640;139.748;2024-02-15T04:33:06;101294.10;;;17.98;40.11
64115;BME280;62188;35.640;139.748;2024-02-15T04:35:32;101283.37;;;17.01;41.42
64115;BME280;62188;35.640;139.748;2024-02-15T04:37:57;101288.92;;;17.89;40.51
64115;BME280;62188;35.640;139.748;2024-02-15T04:40:23;101275.85;;;17.64;40.56
64115;BME280;62188;35.640;139.748;2024-02-15T04:42:48;101271.20;;;17.12;41.28
64115;BME280;62188;35.640;139.748;2024-02-15T04:45:14;101269.49;;;18.43;39.72
64115;BME280;62188;35.640;139.748;2024-02-15T04:47:41;101277.60;;;18.29;40.22
64115;BME280;62188;35.640;139.748;2024-02-15T04:50:06;101276.45;;;17.15;42.18
64115;BME280;62188;35.640;139.748;2024-02-15T04:52:31;101249.38;;;16.79;43.24
64115;BME280;62188;35.640;139.748;2024-02-15T04:54:55;101257.19;;;17.29;42.70
64115;BME280;62188;35.640;139.748;2024-02-15T04:57:21;101251.07;;;18.39;41.44
64115;BME280;62188;35.640;139.748;2024-02-15T04:59:48;101247.06;;;17.55;42.23
64115;BME280;62188;35.640;139.748;2024-02-15T05:02:12;101246.03;;;17.69;41.94
64115;BME280;62188;35.640;139.748;2024-02-15T05:04:39;101246.58;;;17.64;42.71
64115;BME280;62188;35.640;139.748;2024-02-15T05:07:03;101254.86;;;17.82;42.33
64115;BME280;62188;35.640;139.748;2024-02-15T05:09:30;101245.93;;;17.61;42.52
64115;BME280;62188;35.640;139.748;2024-02-15T05:11:54;101244.28;;;17.15;43.12
64115;BME280;62188;35.640;139.748;2024-02-15T05:14:20;101243.68;;;17.50;42.72
64115;BME280;62188;35.640;139.748;2024-02-15T05:16:45;101225.68;;;16.69;43.61
64115;BME280;62188;35.640;139.748;2024-02-15T05:19:10;101231.97;;;17.22;43.45
64115;BME280;62188;35.640;139.748;2024-02-15T05:21:36;101240.93;;;16.87;43.30
64115;BME280;62188;35.640;139.748;2024-02-15T05:24:01;101214.91;;;16.79;43.38
64115;BME280;62188;35.640;139.748;2024-02-15T05:26:28;101208.81;;;17.38;42.59
64115;BME280;62188;35.640;139.748;2024-02-15T05:28:54;101215.40;;;17.39;42.62
64115;BME280;62188;35.640;139.748;2024-02-15T05:31:19;101202.19;;;17.15;42.75
64115;BME280;62188;35.640;139.748;2024-02-15T05:33:43;101211.43;;;16.77;43.47
64115;BME280;62188;35.640;139.748;2024-02-15T05:36:10;101193.60;;;16.76;44.02
64115;BME280;62188;35.640;139.748;2024-02-15T05:38:34;101199.80;;;16.02;45.23
64115;BME280;62188;35.640;139.748;2024-02-15T05:41:02;101182.83;;;16.73;44.87
64115;BME280;62188;35.640;139.748;2024-02-15T05:43:26;101178.78;;;17.11;43.82
64115;BME280;62188;35.640;139.748;2024-02-15T05:45:51;101186.20;;;17.58;42.72
64115;BME280;62188;35.640;139.748;2024-02-15T05:48:17;101176.62;;;17.55;42.94
64115;BME280;62188;35.640;139.748;2024-02-15T05:50:42;101170.05;;;17.45;42.94
64115;BME280;62188;35.640;139.748;2024-02-15T05:53:08;101175.13;;;17.49;42.21
64115;BME280;62188;35.640;139.748;2024-02-15T05:55:33;101175.04;;;17.61;41.66
64115;BME280;62188;35.640;139.748;2024-02-15T05:57:58;101163.56;;;17.50;41.85
64115;BME280;62188;35.640;139.748;2024-02-15T06:00:23;101172.68;;;17.24;42.04
64115;BME280;62188;35.640;139.748;2024-02-15T06:02:48;101160.18;;;17.03;42.24
64115;BME280;62188;35.640;139.748;2024-02-15T06:05:15;101169.71;;;17.03;42.18
64115;BME280;62188;35.640;139.748;2024-02-15T06:07:39;101164.27;;;16.80;42.51
64115;BME280;62188;35.640;139.748;2024-02-15T06:10:07;101167.54;;;17.23;41.95
64115;BME280;62188;35.640;139.748;2024-02-15T06:12:30;101149.15;;;17.51;41.16
64115;BME280;62188;35.640;139.748;2024-02-15T06:14:56;101157.60;;;17.50;41.83
64115;BME280;62188;35.640;139.748;2024-02-15T06:17:23;101146.07;;;17.36;41.81
64115;BME280;62188;35.640;139.748;2024-02-15T06:19:47;101146.28;;;18.02;41.27
64115;BME280;62188;35.640;139.748;2024-02-15T06:22:13;101145.88;;;17.82;41.35
64115;BME280;62188;35.640;139.748;2024-02-15T06:24:38;101137.47;;;17.72;41.50
64115;BME280;62188;35.640;139.748;2024-02-15T06:27:05;101138.36;;;18.12;41.37
64115;BME280;62188;35.640;139.748;2024-02-15T06:29:29;101136.06;;;17.16;41.99
64115;BME280;62188;35.640;139.748;2024-02-15T06:31:57;101138.91;;;18.08;41.00
64115;BME280;62188;35.640;139.748;2024-02-15T06:34:21;101129.48;;;18.14;40.92
64115;BME280;62188;35.640;139.748;2024-02-15T06:36:51;101123.76;;;17.90;41.03
64115;BME280;62188;35.640;139.748;2024-02-15T06:39:12;101125.92;;;16.76;42.82
64115;BME280;62188;35.640;139.748;2024-02-15T06:41:36;101113.40;;;16.95;42.57
64115;BME280;62188;35.640;139.748;2024-02-15T06:44:02;101122.93;;;17.76;42.12
64115;BME280;62188;35.640;139.748;2024-02-15T06:46:29;101115.23;;;17.49;42.04
64115;BME280;62188;35.640;139.748;2024-02-15T06:48:55;101100.40;;;17.28;41.92
64115;BME280;62188;35.640;139.748;2024-02-15T06:51:18;101103.04;;;17.24;42.54
64115;BME280;62188;35.640;139.748;2024-02-15T06:53:44;101091.83;;;16.30;43.57
64115;BME280;62188;35.640;139.748;2024-02-15T06:56:10;101099.77;;;17.10;43.14
64115;BME280;62188;35.640;139.748;2024-02-15T06:58:36;101107.18;;;16.59;43.66
64115;BME280;62188;35.640;139.748;2024-02-15T07:01:03;101098.01;;;16.16;44.20
64115;BME280;62188;35.640;139.748;2024-02-15T07:03:27;101113.33;;;17.29;43.38
64115;BME280;62188;35.640;139.748;2024-02-15T07:05:55;101102.18;;;17.37;42.92
64115;BME280;62188;35.640;139.748;2024-02-15T07:08:17;101123.01;;;16.98;43.21
64115;BME280;62188;35.640;139.748;2024-02-15T07:10:42;101126.57;;;16.36;43.54
64115;BME280;62188;35.640;139.748;2024-02-15T07:13:08;101129.95;;;16.60;43.58
64115;BME280;62188;35.640;139.748;2024-02-15T07:15:37;101132.95;;;16.94;42.77
64115;BME280;62188;35.640;139.748;2024-02-15T07:17:59;101130.67;;;16.42;43.56
64115;BME280;62188;35.640;139.748;2024-02-15T07:20:24;101130.84;;;16.45;44.13
64115;BME280;62188;35.640;139.748;2024-02-15T07:22:50;101129.29;;;16.81;43.71
64115;BME280;62188;35.640;139.748;2024-02-15T07:25:16;101131.05;;;16.57;44.19
64115;BME280;62188;35.640;139.748;2024-02-15T07:27:43;101141.40;;;17.13;43.51
64115;BME280;62188;35.640;139.748;2024-02-15T07:30:09;101131.13;;;16.32;44.33
64115;BME280;62188;35.640;139.748;2024-02-15T07:32:34;101136.88;;;16.73;43.89
64115;BME280;62188;35.640;139.748;2024-02-15T07:34:58;101138.89;;;17.21;43.22
64115;BME280;62188;35.640;139.748;2024-02-15T07:37:25;101145.40;;;16.87;44.03
64115;BME280;62188;35.640;139.748;2024-02-15T07:39:49;101134.20;;;17.08;44.00
64115;BME280;62188;35.640;139.748;2024-02-15T07:42:18;101136.43;;;16.32;45.17
64115;BME280;62188;35.640;139.748;2024-02-15T07:44:40;101138.84;;;16.87;44.80
64115;BME280;62188;35.640;139.748;2024-02-15T07:47:06;101136.77;;;16.80;44.73
64115;BME280;62188;35.640;139.748;2024-02-15T07:49:32;101142.03;;;16.53;45.09
64115;BME280;62188;35.640;139.748;2024-02-15T07:51:56;101111.56;;;16.33;44.80
64115;BME280;62188;35.640;139.748;2024-02-15T07:54:24;101124.71;;;16.27;44.85
64115;BME280;62188;35.640;139.748;2024-02-15T07:56:48;101125.69;;;16.05;45.30
64115;BME280;62188;35.640;139.748;2024-02-15T07:59:13;101123.56;;;16.02;45.06
64115;BME280;62188;35.640;139.748;2024-02-15T08:01:42;101128.89;;;16.42;44.77
64115;BME280;62188;35.640;139.748;2024-02-15T08:04:04;101142.73;;;16.31;45.02
64115;BME280;62188;35.640;139.748;2024-02-15T08:06:30;101130.88;;;16.48;44.37
64115;BME280;62188;35.640;139.748;2024-02-15T08:08:56;101126.49;;;16.83;43.39
64115;BME280;62188;35.640;139.748;2024-02-15T08:11:22;101128.11;;;17.18;43.22
64115;BME280;62188;35.640;139.748;2024-02-15T08:13:47;101141.32;;;17.12;43.01
64115;BME280;62188;35.640;139.748;2024-02-15T08:16:13;101133.70;;;17.02;43.16
64115;BME280;62188;35.640;139.748;2024-02-15T08:18:36;101118.82;;;17.12;43.34
64115;BME280;62188;35.640;139.748;2024-02-15T08:21:02;101128.95;;;16.54;43.77
64115;BME280;62188;35.640;139.748;2024-02-15T08:23:27;101115.21;;;16.87;43.73
64115;BME280;62188;35.640;139.748;2024-02-15T08:25:55;101109.53;;;16.04;44.46
64115;BME280;62188;35.640;139.748;2024-02-15T08:28:19;101101.22;;;16.20;44.61
64115;BME280;62188;35.640;139.748;2024-02-15T08:30:44;101100.67;;;16.55;44.38
64115;BME280;62188;35.640;139.748;2024-02-15T08:33:11;101083.13;;;16.47;44.31
64115;BME280;62188;35.640;139.748;2024-02-15T08:35:35;101069.45;;;16.46;43.97
64115;BME280;62188;35.640;139.748;2024-02-15T08:38:04;101063.00;;;16.35;43.70
64115;BME280;62188;35.640;139.748;2024-02-15T08:40:26;101058.97;;;16.34;43.97
64115;BME280;62188;35.640;139.748;2024-02-15T08:42:53;101054.01;;;16.68;43.07
64115;BME280;62188;35.640;139.748;2024-02-15T08:45:17;101056.05;;;16.72;43.24
64115;BME280;62188;35.640;139.748;2024-02-15T08:47:45;101045.10;;;16.61;42.96
64115;BME280;62188;35.640;139.748;2024-02-15T08:50:10;101052.09;;;16.84;42.65
64115;BME280;62188;35.640;139.748;2024-02-15T08:52:34;101066.10;;;16.94;42.66
64115;BME280;62188;35.640;139.748;2024-02-15T08:55:00;101056.83;;;16.47;43.32
64115;BME280;62188;35.640;139.748;2024-02-15T08:57:26;101052.41;;;16.61;42.31
64115;BME280;62188;35.640;139.748;2024-02-15T08:59:52;101057.49;;;15.85;44.01
64115;BME280;62188;35.640;139.748;2024-02-15T09:02:16;101066.56;;;16.52;43.10
64115;BME280;62188;35.640;139.748;2024-02-15T09:04:42;101065.73;;;16.50;43.23
64115;BME280;62188;35.640;139.748;2024-02-15T09:07:08;101054.82;;;16.11;43.95
64115;BME280;62188;35.640;139.748;2024-02-15T09:09:32;101050.13;;;16.17;44.13
64115;BME280;62188;35.640;139.748;2024-02-15T09:12:01;101050.88;;;15.92;44.59
64115;BME280;62188;35.640;139.748;2024-02-15T09:14:24;101055.28;;;15.84;44.74
64115;BME280;62188;35.640;139.748;2024-02-15T09:16:51;101058.29;;;16.22;44.36
64115;BME280;62188;35.640;139.748;2024-02-15T09:19:15;101045.69;;;16.21;44.29
64115;BME280;62188;35.640;139.748;2024-02-15T09:21:40;101054.27;;;16.75;43.42
64115;BME280;62188;35.640;139.748;2024-02-15T09:24:06;101024.94;;;16.50;43.46
64115;BME280;62188;35.640;139.748;2024-02-15T09:26:31;101013.97;;;16.72;43.06
64115;BME280;62188;35.640;139.748;2024-02-15T09:28:56;101002.92;;;16.78;42.91
64115;BME280;62188;35.640;139.748;2024-02-15T09:31:22;101014.67;;;16.46;43.35
64115;BME280;62188;35.640;139.748;2024-02-15T09:33:48;101007.06;;;15.93;44.00
64115;BME280;62188;35.640;139.748;2024-02-15T09:36:13;100988.99;;;15.80;44.23
64115;BME280;62188;35.640;139.748;2024-02-15T09:38:38;100993.76;;;16.26;43.50
64115;BME280;62188;35.640;139.748;2024-02-15T09:41:06;100987.44;;;15.61;44.76
64115;BME280;62188;35.640;139.748;2024-02-15T09:43:29;100978.33;;;15.97;44.70
64115;BME280;62188;35.640;139.748;2024-02-15T09:45:55;100966.19;;;15.70;45.28
64115;BME280;62188;35.640;139.748;2024-02-15T09:48:21;100965.34;;;15.70;45.16
64115;BME280;62188;35.640;139.748;2024-02-15T09:50:46;100944.30;;;16.11;44.22
64115;BME280;62188;35.640;139.748;2024-02-15T09:53:12;100937.50;;;16.19;43.98
64115;BME280;62188;35.640;139.748;2024-02-15T09:55:39;100926.57;;;16.38;43.72
64115;BME280;62188;35.640;139.748;2024-02-15T09:58:03;100919.26;;;16.02;44.05
64115;BME280;62188;35.640;139.748;2024-02-15T10:00:28;100922.18;;;15.74;44.47
64115;BME280;62188;35.640;139.748;2024-02-15T10:02:54;100913.69;;;16.15;44.35
64115;BME280;62188;35.640;139.748;2024-02-15T10:05:21;100915.60;;;16.42;43.65
64115;BME280;62188;35.640;139.748;2024-02-15T10:07:45;100920.06;;;16.21;43.72
64115;BME280;62188;35.640;139.748;2024-02-15T10:10:17;100899.67;;;15.93;44.15
64115;BME280;62188;35.640;139.748;2024-02-15T10:12:38;100888.74;;;15.84;44.38
64115;BME280;62188;35.640;139.748;2024-02-15T10:15:01;100877.17;;;15.59;44.72
64115;BME280;62188;35.640;139.748;2024-02-15T10:17:26;100861.07;;;16.07;44.53
64115;BME280;62188;35.640;139.748;2024-02-15T10:22:17;100829.42;;;15.55;45.43
64115;BME280;62188;35.640;139.748;2024-02-15T10:24:43;100794.35;;;15.20;46.08
64115;BME280;62188;35.640;139.748;2024-02-15T10:27:09;100820.87;;;15.85;45.56
64115;BME280;62188;35.640;139.748;2024-02-15T10:29:34;100832.42;;;15.54;46.20
64115;BME280;62188;35.640;139.748;2024-02-15T10:32:05;100849.73;;;15.33;46.17
64115;BME280;62188;35.640;139.748;2024-02-15T10:34:25;100844.20;;;15.47;46.20
64115;BME280;62188;35.640;139.748;2024-02-15T10:39:16;100854.67;;;16.04;46.78
64115;BME280;62188;35.640;139.748;2024-02-15T10:41:41;100859.45;;;15.84;47.78
64115;BME280;62188;35.640;139.748;2024-02-15T10:44:09;100863.75;;;15.01;48.85
64115;BME280;62188;35.640;139.748;2024-02-15T10:46:33;100865.86;;;15.13;49.65
64115;BME280;62188;35.640;139.748;2024-02-15T10:48:57;100848.26;;;14.68;50.26
64115;BME280;62188;35.640;139.748;2024-02-15T10:51:24;100887.54;;;14.85;50.57
64115;BME280;62188;35.640;139.748;2024-02-15T10:53:56;100893.14;;;14.94;50.57
64115;BME280;62188;35.640;139.748;2024-02-15T10:56:17;100899.56;;;14.82;51.27
64115;BME280;62188;35.640;139.748;2024-02-15T10:58:46;100910.89;;;15.21;50.31
64115;BME280;62188;35.640;139.748;2024-02-15T11:01:07;100901.74;;;15.61;49.81
64115;BME280;62188;35.640;139.748;2024-02-15T11:03:35;100894.36;;;15.35;50.09
64115;BME280;62188;35.640;139.748;2024-02-15T11:05:59;100895.20;;;15.47;50.05
64115;BME280;62188;35.640;139.748;2024-02-15T11:08:23;100887.59;;;15.32;50.50
64115;BME280;62188;35.640;139.748;2024-02-15T11:10:51;100894.26;;;15.88;49.17
64115;BME280;62188;35.640;139.748;2024-02-15T11:13:13;100914.93;;;16.08;49.23
64115;BME280;62188;35.640;139.748;2024-02-15T11:15:44;100909.06;;;16.33;47.95
64115;BME280;62188;35.640;139.748;2024-02-15T11:18:05;100898.29;;;16.39;47.45
64115;BME280;62188;35.640;139.748;2024-02-15T11:20:46;100898.61;;;16.45;47.22
64115;BME280;62188;35.640;139.748;2024-02-15T11:22:58;100890.16;;;16.36;47.51
64115;BME280;62188;35.640;139.748;2024-02-15T11:27:46;100887.02;;;16.25;47.01
64115;BME280;62188;35.640;139.748;2024-02-15T11:30:11;100866.55;;;16.45;47.24
64115;BME280;62188;35.640;139.748;2024-02-15T11:32:40;100862.85;;;16.73;46.60
64115;BME280;62188;35.640;139.748;2024-02-15T11:35:05;100850.24;;;16.11;48.30
64115;BME280;62188;35.640;139.748;2024-02-15T11:40:00;100821.04;;;16.71;47.59
64115;BME280;62188;35.640;139.748;2024-02-15T11:42:28;100812.58;;;16.75;47.07
64115;BME280;62188;35.640;139.748;2024-02-15T11:44:46;100791.52;;;16.64;47.47
64115;BME280;62188;35.640;139.748;2024-02-15T11:47:12;100792.33;;;16.95;46.69
64115;BME280;62188;35.640;139.748;2024-02-15T11:49:35;100797.90;;;17.05;46.99
64115;BME280;62188;35.640;139.748;2024-02-15T11:52:09;100792.13;;;16.93;47.12
64115;BME280;62188;35.640;139.748;2024-02-15T11:54:26;100782.55;;;16.53;47.84
64115;BME280;62188;35.640;139.748;2024-02-15T11:56:53;100783.29;;;16.86;47.32
64115;BME280;62188;35.640;139.748;2024-02-15T11:59:18;100781.06;;;16.76;47.40
64115;BME280;62188;35.640;139.748;2024-02-15T12:01:43;100772.86;;;16.31;47.26
64115;BME280;62188;35.640;139.748;2024-02-15T12:04:09;100788.85;;;16.78;47.74
64115;BME280;62188;35.640;139.748;2024-02-15T12:06:34;100781.57;;;16.59;46.87
64115;BME280;62188;35.640;139.748;2024-02-15T12:09:00;100787.07;;;16.61;47.65
64115;BME280;62188;35.640;139.748;2024-02-15T12:11:26;100771.85;;;16.51;47.49
64115;BME280;62188;35.640;139.748;2024-02-15T12:13:53;100779.87;;;16.25;48.49
64115;BME280;62188;35.640;139.748;2024-02-15T12:16:18;100772.23;;;16.25;48.10
64115;BME280;62188;35.640;139.748;2024-02-15T12:18:43;100770.18;;;16.51;48.15
64115;BME280;62188;35.640;139.748;2024-02-15T12:21:07;100758.11;;;16.18;48.57
64115;BME280;62188;35.640;139.748;2024-02-15T12:23:37;100760.16;;;16.10;48.28
64115;BME280;62188;35.640;139.748;2024-02-15T12:25:58;100745.15;;;15.53;49.57
64115;BME280;62188;35.640;139.748;2024-02-15T12:28:25;100746.03;;;16.49;48.18
64115;BME280;62188;35.640;139.748;2024-02-15T12:30:55;100742.57;;;16.16;49.53
64115;BME280;62188;35.640;139.748;2024-02-15T12:33:16;100731.78;;;15.85;50.86